createdAt,value
2019-03-02T00:00:52.455Z,7.69
2019-03-02T00:01:52.408Z,7.62
2019-03-02T00:02:52.367Z,7.67
2019-03-02T00:03:52.312Z,7.67
2019-03-02T00:04:52.262Z,7.64
2019-03-02T00:05:52.215Z,7.62
2019-03-02T00:06:52.170Z,7.64
2019-03-02T00:07:52.117Z,7.58
2019-03-02T00:08:52.069Z,7.61
2019-03-02T00:09:52.019Z,7.56
2019-03-02T00:10:51.978Z,7.56
2019-03-02T00:11:52.948Z,7.59
2019-03-02T00:12:51.881Z,7.56
2019-03-02T00:13:51.830Z,7.56
2019-03-02T00:14:54.054Z,7.64
2019-03-02T00:15:51.731Z,7.61
2019-03-02T00:16:51.683Z,7.56
2019-03-02T00:17:54.171Z,7.62
2019-03-02T00:18:51.588Z,7.61
2019-03-02T00:19:51.539Z,7.59
2019-03-02T00:20:55.437Z,7.53
2019-03-02T00:21:51.450Z,7.55
2019-03-02T00:22:51.390Z,7.58
2019-03-02T00:23:54.262Z,7.58
2019-03-02T00:24:54.055Z,7.55
2019-03-02T00:25:51.250Z,7.53
2019-03-02T00:26:51.204Z,7.53
2019-03-02T00:27:54.108Z,7.58
2019-03-02T00:28:51.103Z,7.58
2019-03-02T00:29:51.055Z,7.53
2019-03-02T00:30:51.020Z,7.59
2019-03-02T00:31:50.962Z,7.46
2019-03-02T00:32:50.913Z,7.53
2019-03-02T00:33:53.792Z,7.58
2019-03-02T00:34:50.811Z,7.59
2019-03-02T00:35:50.768Z,7.55
2019-03-02T00:36:50.999Z,7.53
2019-03-02T00:37:50.668Z,7.47
2019-03-02T00:38:50.617Z,7.48
2019-03-02T00:39:54.344Z,7.47
2019-03-02T00:40:50.524Z,7.46
2019-03-02T00:41:50.476Z,7.44
2019-03-02T00:42:51.938Z,7.51
2019-03-02T00:43:50.379Z,7.47
2019-03-02T00:44:50.335Z,7.48
2019-03-02T00:45:50.283Z,7.46
2019-03-02T00:46:50.232Z,7.47
2019-03-02T00:47:50.183Z,7.48
2019-03-02T00:48:50.145Z,7.50
2019-03-02T00:49:50.092Z,7.46
2019-03-02T00:50:50.038Z,7.51
2019-03-02T00:51:49.993Z,7.48
2019-03-02T00:52:49.947Z,7.48
2019-03-02T00:53:49.892Z,7.48
2019-03-02T00:54:57.778Z,7.44
2019-03-02T00:55:49.799Z,7.46
2019-03-02T00:56:49.756Z,7.41
2019-03-02T00:57:50.714Z,7.44
2019-03-02T00:58:49.659Z,7.48
2019-03-02T00:59:49.602Z,7.44
2019-03-02T01:00:50.040Z,7.39
2019-03-02T01:01:49.507Z,7.46
2019-03-02T01:02:49.465Z,7.47
2019-03-02T01:03:50.638Z,7.40
2019-03-02T01:04:49.361Z,7.39
2019-03-02T01:05:49.318Z,7.41
2019-03-02T01:06:50.054Z,7.41
2019-03-02T01:07:49.218Z,7.37
2019-03-02T01:08:49.170Z,7.31
2019-03-02T01:09:49.127Z,7.37
2019-03-02T01:10:49.094Z,7.43
2019-03-02T01:11:49.024Z,7.26
2019-03-02T01:12:48.979Z,7.43
2019-03-02T01:13:48.930Z,7.37
2019-03-02T01:14:48.878Z,7.33
2019-03-02T01:15:48.831Z,7.32
2019-03-02T01:16:51.642Z,7.32
2019-03-02T01:17:48.735Z,7.39
2019-03-02T01:18:48.685Z,7.32
2019-03-02T01:19:49.057Z,7.31
2019-03-02T01:20:48.590Z,7.31
2019-03-02T01:21:48.541Z,7.33
2019-03-02T01:22:51.762Z,7.37
2019-03-02T01:23:48.443Z,7.37
2019-03-02T01:24:48.399Z,7.31
2019-03-02T01:25:48.885Z,7.32
2019-03-02T01:26:48.299Z,7.33
2019-03-02T01:27:48.251Z,7.32
2019-03-02T01:28:48.204Z,7.29
2019-03-02T01:29:48.156Z,7.29
2019-03-02T01:30:48.108Z,7.33
2019-03-02T01:31:48.055Z,7.37
2019-03-02T01:32:48.805Z,7.28
2019-03-02T01:33:47.963Z,7.26
2019-03-02T01:34:47.917Z,7.36
2019-03-02T01:35:47.866Z,7.40
2019-03-02T01:36:47.814Z,7.32
2019-03-02T01:37:47.766Z,7.26
2019-03-02T01:38:50.601Z,7.37
2019-03-02T01:39:47.671Z,7.29
2019-03-02T01:40:47.624Z,7.36
2019-03-02T01:41:50.915Z,7.31
2019-03-02T01:42:47.526Z,7.32
2019-03-02T01:43:47.476Z,7.36
2019-03-02T01:44:48.740Z,7.33
2019-03-02T01:45:47.384Z,7.32
2019-03-02T01:46:47.331Z,7.31
2019-03-02T01:47:51.272Z,7.32
2019-03-02T01:48:47.236Z,7.37
2019-03-02T01:49:47.188Z,7.25
2019-03-02T01:50:47.696Z,7.32
2019-03-02T01:51:47.090Z,7.29
2019-03-02T01:52:47.044Z,7.32
2019-03-02T01:53:46.992Z,7.25
2019-03-02T01:54:46.953Z,7.29
2019-03-02T01:55:46.903Z,7.21
2019-03-02T01:56:46.851Z,7.25
2019-03-02T01:57:48.871Z,7.29
2019-03-02T01:58:46.775Z,7.28
2019-03-02T01:59:46.702Z,7.36
2019-03-02T02:00:49.161Z,7.32
2019-03-02T02:01:46.609Z,7.25
2019-03-02T02:02:46.557Z,7.29
2019-03-02T02:03:47.023Z,7.31
2019-03-02T02:04:46.462Z,7.28
2019-03-02T02:05:46.418Z,7.23
2019-03-02T02:06:46.362Z,7.22
2019-03-02T02:07:46.314Z,7.31
2019-03-02T02:08:46.271Z,7.31
2019-03-02T02:09:46.226Z,7.28
2019-03-02T02:10:46.171Z,7.32
2019-03-02T02:11:46.121Z,7.31
2019-03-02T02:12:46.072Z,7.37
2019-03-02T02:13:46.027Z,7.41
2019-03-02T02:14:45.977Z,7.39
2019-03-02T02:15:45.928Z,7.31
2019-03-02T02:16:45.882Z,7.37
2019-03-02T02:17:45.835Z,7.36
2019-03-02T02:18:45.785Z,7.33
2019-03-02T02:19:45.741Z,7.33
2019-03-02T02:20:46.930Z,7.31
2019-03-02T02:21:45.645Z,7.37
2019-03-02T02:22:45.592Z,7.29
2019-03-02T02:23:45.806Z,7.26
2019-03-02T02:24:45.499Z,7.28
2019-03-02T02:25:45.448Z,7.26
2019-03-02T02:26:46.872Z,7.33
2019-03-02T02:27:45.348Z,7.32
2019-03-02T02:28:45.313Z,7.26
2019-03-02T02:29:45.254Z,7.26
2019-03-02T02:30:45.203Z,7.28
2019-03-02T02:31:46.474Z,7.29
2019-03-02T02:32:45.108Z,7.29
2019-03-02T02:33:45.056Z,7.31
2019-03-02T02:34:45.009Z,7.37
2019-03-02T02:35:44.960Z,7.32
2019-03-02T02:36:44.914Z,7.31
2019-03-02T02:37:44.870Z,7.39
2019-03-02T02:38:44.819Z,7.31
2019-03-02T02:39:44.769Z,7.32
2019-03-02T02:40:44.720Z,7.39
2019-03-02T02:41:44.668Z,7.31
2019-03-02T02:42:45.057Z,7.39
2019-03-02T02:43:44.578Z,7.32
2019-03-02T02:44:44.540Z,7.41
2019-03-02T02:45:48.998Z,7.33
2019-03-02T02:46:44.436Z,7.28
2019-03-02T02:47:50.342Z,7.31
2019-03-02T02:48:44.336Z,7.39
2019-03-02T02:49:49.025Z,7.37
2019-03-02T02:50:44.234Z,7.31
2019-03-02T02:51:49.309Z,7.36
2019-03-02T02:52:44.384Z,7.32
2019-03-02T02:53:45.240Z,7.32
2019-03-02T02:54:44.387Z,7.32
2019-03-02T02:55:44.231Z,7.33
2019-03-02T02:56:44.141Z,7.39
2019-03-02T02:57:44.133Z,7.32
2019-03-02T02:58:44.058Z,7.39
2019-03-02T02:59:43.908Z,7.36
2019-03-02T03:00:43.982Z,7.31
2019-03-02T03:01:43.872Z,7.36
2019-03-02T03:02:43.802Z,7.37
2019-03-02T03:03:43.776Z,7.33
2019-03-02T03:04:43.659Z,7.29
2019-03-02T03:05:43.736Z,7.37
2019-03-02T03:06:43.463Z,7.39
2019-03-02T03:07:52.139Z,7.41
2019-03-02T03:08:43.387Z,7.39
2019-03-02T03:09:45.284Z,7.37
2019-03-02T03:10:43.269Z,7.32
2019-03-02T03:11:44.521Z,7.32
2019-03-02T03:12:43.173Z,7.41
2019-03-02T03:13:43.123Z,7.37
2019-03-02T03:14:43.081Z,7.39
2019-03-02T03:15:43.026Z,7.36
2019-03-02T03:16:42.979Z,7.39
2019-03-02T03:17:42.931Z,7.37
2019-03-02T03:18:47.230Z,7.40
2019-03-02T03:19:42.833Z,7.32
2019-03-02T03:20:47.898Z,7.31
2019-03-02T03:21:42.736Z,7.33
2019-03-02T03:22:46.082Z,7.33
2019-03-02T03:23:42.640Z,7.43
2019-03-02T03:24:42.609Z,7.40
2019-03-02T03:25:42.543Z,7.37
2019-03-02T03:26:42.496Z,7.39
2019-03-02T03:27:47.637Z,7.37
2019-03-02T03:28:42.399Z,7.31
2019-03-02T03:29:44.539Z,7.41
2019-03-02T03:30:42.298Z,7.29
2019-03-02T03:31:42.264Z,7.40
2019-03-02T03:32:54.722Z,7.39
2019-03-02T03:33:46.533Z,7.37
2019-03-02T03:34:42.110Z,7.32
2019-03-02T03:35:42.061Z,7.33
2019-03-02T03:36:42.011Z,7.39
2019-03-02T03:37:41.969Z,7.43
2019-03-02T03:38:41.915Z,7.40
2019-03-02T03:39:46.376Z,7.43
2019-03-02T03:40:41.820Z,7.37
2019-03-02T03:41:43.489Z,7.43
2019-03-02T03:42:41.719Z,7.41
2019-03-02T03:43:44.046Z,7.46
2019-03-02T03:44:41.627Z,7.43
2019-03-02T03:45:43.413Z,7.41
2019-03-02T03:46:41.529Z,7.39
2019-03-02T03:47:41.490Z,7.39
2019-03-02T03:48:41.434Z,7.47
2019-03-02T03:49:41.386Z,7.48
2019-03-02T03:50:41.335Z,7.43
2019-03-02T03:51:41.288Z,7.47
2019-03-02T03:52:43.991Z,7.47
2019-03-02T03:53:41.199Z,7.53
2019-03-02T03:54:45.301Z,7.50
2019-03-02T03:55:41.096Z,7.46
2019-03-02T03:56:42.478Z,7.44
2019-03-02T03:57:40.997Z,7.46
2019-03-02T03:58:41.527Z,7.41
2019-03-02T03:59:40.906Z,7.44
2019-03-02T04:00:40.850Z,7.48
2019-03-02T04:01:40.814Z,7.43
2019-03-02T04:02:40.760Z,7.44
2019-03-02T04:03:40.727Z,7.51
2019-03-02T04:04:40.657Z,7.48
2019-03-02T04:05:42.241Z,7.48
2019-03-02T04:06:40.563Z,7.46
2019-03-02T04:07:48.873Z,7.50
2019-03-02T04:08:40.463Z,7.55
2019-03-02T04:09:42.814Z,7.51
2019-03-02T04:10:40.377Z,7.46
2019-03-02T04:11:42.045Z,7.44
2019-03-02T04:12:40.271Z,7.48
2019-03-02T04:13:44.962Z,7.53
2019-03-02T04:14:40.175Z,7.51
2019-03-02T04:15:41.586Z,7.48
2019-03-02T04:16:40.089Z,7.48
2019-03-02T04:17:40.817Z,7.50
2019-03-02T04:18:39.989Z,7.50
2019-03-02T04:19:39.932Z,7.47
2019-03-02T04:20:39.888Z,7.48
2019-03-02T04:21:39.839Z,7.46
2019-03-02T04:22:44.175Z,7.46
2019-03-02T04:23:39.738Z,7.48
2019-03-02T04:24:41.023Z,7.48
2019-03-02T04:25:39.645Z,7.44
2019-03-02T04:26:39.594Z,7.50
2019-03-02T04:27:39.544Z,7.41
2019-03-02T04:28:39.496Z,7.51
2019-03-02T04:29:48.863Z,7.46
2019-03-02T04:30:39.400Z,7.50
2019-03-02T04:31:39.354Z,7.48
2019-03-02T04:32:39.308Z,7.51
2019-03-02T04:33:43.140Z,7.46
2019-03-02T04:34:39.211Z,7.48
2019-03-02T04:35:39.164Z,7.53
2019-03-02T04:36:39.115Z,7.47
2019-03-02T04:37:39.067Z,7.53
2019-03-02T04:38:39.020Z,7.51
2019-03-02T04:39:38.974Z,7.50
2019-03-02T04:40:38.935Z,7.41
2019-03-02T04:41:39.524Z,7.51
2019-03-02T04:42:38.840Z,7.47
2019-03-02T04:43:38.773Z,7.55
2019-03-02T04:44:38.723Z,7.40
2019-03-02T04:45:39.688Z,7.48
2019-03-02T04:46:38.626Z,7.55
2019-03-02T04:47:38.578Z,7.48
2019-03-02T04:48:39.358Z,7.47
2019-03-02T04:49:38.485Z,7.51
2019-03-02T04:50:38.436Z,7.48
2019-03-02T04:51:38.732Z,7.48
2019-03-02T04:52:38.339Z,7.50
2019-03-02T04:53:38.289Z,7.47
2019-03-02T04:54:38.617Z,7.48
2019-03-02T04:55:38.196Z,7.53
2019-03-02T04:56:38.144Z,7.50
2019-03-02T04:57:38.096Z,7.51
2019-03-02T04:58:38.048Z,7.47
2019-03-02T04:59:37.998Z,7.47
2019-03-02T05:00:37.952Z,7.47
2019-03-02T05:01:38.865Z,7.47
2019-03-02T05:02:37.897Z,7.44
2019-03-02T05:03:37.803Z,7.48
2019-03-02T05:04:37.758Z,7.47
2019-03-02T05:05:40.605Z,7.47
2019-03-02T05:06:37.661Z,7.48
2019-03-02T05:07:37.614Z,7.47
2019-03-02T05:08:41.064Z,7.46
2019-03-02T05:09:37.518Z,7.46
2019-03-02T05:10:37.471Z,7.47
2019-03-02T05:11:39.335Z,7.46
2019-03-02T05:12:37.371Z,7.46
2019-03-02T05:13:37.326Z,7.50
2019-03-02T05:14:40.173Z,7.48
2019-03-02T05:15:37.227Z,7.43
2019-03-02T05:16:37.179Z,7.44
2019-03-02T05:17:39.684Z,7.50
2019-03-02T05:18:37.079Z,7.50
2019-03-02T05:19:37.031Z,7.58
2019-03-02T05:20:37.763Z,7.48
2019-03-02T05:21:39.790Z,7.51
2019-03-02T05:22:36.891Z,7.46
2019-03-02T05:23:36.840Z,7.48
2019-03-02T05:24:36.795Z,7.46
2019-03-02T05:25:36.742Z,7.55
2019-03-02T05:26:36.705Z,7.48
2019-03-02T05:27:36.651Z,7.50
2019-03-02T05:28:39.678Z,7.48
2019-03-02T05:29:36.550Z,7.51
2019-03-02T05:30:36.504Z,7.48
2019-03-02T05:31:37.567Z,7.48
2019-03-02T05:32:36.410Z,7.51
2019-03-02T05:33:36.356Z,7.51
2019-03-02T05:34:36.698Z,7.48
2019-03-02T05:35:36.263Z,7.48
2019-03-02T05:36:36.223Z,7.46
2019-03-02T05:37:39.319Z,7.48
2019-03-02T05:38:36.118Z,7.50
2019-03-02T05:39:36.065Z,7.48
2019-03-02T05:40:36.023Z,7.41
2019-03-02T05:41:39.253Z,7.47
2019-03-02T05:42:35.922Z,7.48
2019-03-02T05:43:35.871Z,7.46
2019-03-02T05:44:35.824Z,7.46
2019-03-02T05:45:35.779Z,7.47
2019-03-02T05:46:35.728Z,7.46
2019-03-02T05:47:35.680Z,7.55
2019-03-02T05:48:39.009Z,7.53
2019-03-02T05:49:35.582Z,7.51
2019-03-02T05:50:35.608Z,7.55
2019-03-02T05:51:38.857Z,7.51
2019-03-02T05:52:35.436Z,7.55
2019-03-02T05:53:35.392Z,7.59
2019-03-02T05:54:38.557Z,7.47
2019-03-02T05:55:35.296Z,7.58
2019-03-02T05:56:35.245Z,7.56
2019-03-02T05:57:36.875Z,7.58
2019-03-02T05:58:35.155Z,7.56
2019-03-02T05:59:35.100Z,7.56
2019-03-02T06:00:37.789Z,7.56
2019-03-02T06:01:36.673Z,7.50
2019-03-02T06:02:34.955Z,7.58
2019-03-02T06:03:34.915Z,7.56
2019-03-02T06:04:34.858Z,7.64
2019-03-02T06:05:34.810Z,7.51
2019-03-02T06:06:34.762Z,7.61
2019-03-02T06:07:34.713Z,7.55
2019-03-02T06:08:35.635Z,7.56
2019-03-02T06:09:34.617Z,7.61
2019-03-02T06:10:34.571Z,7.61
2019-03-02T06:11:35.232Z,7.58
2019-03-02T06:12:34.472Z,7.61
2019-03-02T06:13:34.431Z,7.56
2019-03-02T06:14:34.376Z,7.55
2019-03-02T06:15:34.326Z,7.58
2019-03-02T06:16:34.279Z,7.58
2019-03-02T06:17:34.234Z,7.66
2019-03-02T06:18:34.183Z,7.62
2019-03-02T06:19:34.134Z,7.70
2019-03-02T06:20:35.584Z,7.64
2019-03-02T06:21:34.041Z,7.62
2019-03-02T06:22:33.987Z,7.62
2019-03-02T06:23:33.943Z,7.64
2019-03-02T06:24:33.895Z,7.55
2019-03-02T06:25:33.858Z,7.58
2019-03-02T06:26:35.400Z,7.72
2019-03-02T06:27:33.747Z,7.66
2019-03-02T06:28:34.886Z,7.56
2019-03-02T06:29:33.660Z,7.59
2019-03-02T06:31:33.561Z,7.66
2019-03-02T06:32:33.627Z,7.62
2019-03-02T06:33:33.463Z,7.59
2019-03-02T06:34:33.412Z,7.61
2019-03-02T06:35:33.992Z,7.62
2019-03-02T06:36:33.318Z,7.59
2019-03-02T06:37:33.269Z,7.64
2019-03-02T06:38:33.221Z,7.58
2019-03-02T06:39:33.168Z,7.55
2019-03-02T06:40:33.124Z,7.55
2019-03-02T06:41:33.374Z,7.53
2019-03-02T06:42:33.024Z,7.55
2019-03-02T06:43:32.974Z,7.53
2019-03-02T06:44:34.163Z,7.55
2019-03-02T06:45:32.877Z,7.58
2019-03-02T06:46:32.833Z,7.58
2019-03-02T06:47:33.386Z,7.55
2019-03-02T06:48:32.732Z,7.53
2019-03-02T06:49:32.685Z,7.66
2019-03-02T06:50:35.702Z,7.61
2019-03-02T06:51:32.591Z,7.62
2019-03-02T06:52:32.546Z,7.62
2019-03-02T06:53:34.040Z,7.61
2019-03-02T06:54:32.446Z,7.70
2019-03-02T06:55:32.398Z,7.70
2019-03-02T06:56:32.591Z,7.67
2019-03-02T06:57:32.303Z,7.70
2019-03-02T06:58:32.248Z,7.72
2019-03-02T06:59:32.204Z,7.72
2019-03-02T07:00:32.152Z,7.67
2019-03-02T07:01:32.104Z,7.69
2019-03-02T07:02:35.160Z,7.78
2019-03-02T07:03:32.008Z,7.62
2019-03-02T07:04:31.962Z,7.75
2019-03-02T07:05:34.005Z,7.85
2019-03-02T07:06:31.860Z,7.69
2019-03-02T07:07:31.817Z,7.74
2019-03-02T07:08:32.818Z,7.74
2019-03-02T07:09:31.721Z,7.75
2019-03-02T07:10:33.078Z,7.72
2019-03-02T07:11:33.642Z,7.72
2019-03-02T07:12:31.575Z,7.75
2019-03-02T07:13:31.529Z,7.70
2019-03-02T07:14:32.315Z,7.77
2019-03-02T07:15:31.440Z,7.78
2019-03-02T07:16:31.380Z,7.84
2019-03-02T07:17:31.722Z,7.78
2019-03-02T07:18:31.282Z,7.78
2019-03-02T07:19:32.853Z,7.84
2019-03-02T07:20:31.188Z,7.87
2019-03-02T07:21:31.143Z,7.90
2019-03-02T07:22:31.091Z,7.90
2019-03-02T07:23:31.040Z,7.88
2019-03-02T07:24:30.994Z,7.88
2019-03-02T07:25:30.948Z,7.98
2019-03-02T07:26:30.899Z,7.91
2019-03-02T07:27:30.848Z,8.02
2019-03-02T07:28:30.804Z,8.01
2019-03-02T07:29:32.014Z,8.01
2019-03-02T07:30:30.705Z,8.02
2019-03-02T07:31:30.666Z,8.03
2019-03-02T07:32:30.607Z,8.02
2019-03-02T07:33:30.559Z,8.09
2019-03-02T07:34:30.515Z,8.05
2019-03-02T07:35:30.692Z,8.11
2019-03-02T07:36:33.981Z,8.16
2019-03-02T07:37:30.366Z,8.08
2019-03-02T07:38:30.317Z,8.11
2019-03-02T07:39:32.673Z,8.11
2019-03-02T07:40:30.227Z,8.14
2019-03-02T07:41:30.174Z,8.13
2019-03-02T07:42:33.540Z,8.11
2019-03-02T07:43:30.085Z,8.16
2019-03-02T07:44:30.030Z,8.13
2019-03-02T07:45:31.377Z,8.18
2019-03-02T07:46:29.932Z,8.08
2019-03-02T07:47:29.885Z,8.14
2019-03-02T07:48:33.180Z,8.18
2019-03-02T07:49:29.798Z,8.18
2019-03-02T07:50:29.871Z,8.17
2019-03-02T07:51:29.692Z,8.20
2019-03-02T07:52:29.644Z,8.18
2019-03-02T07:53:30.346Z,8.23
2019-03-02T07:54:29.549Z,8.17
2019-03-02T07:55:29.501Z,8.28
2019-03-02T07:56:29.605Z,8.16
2019-03-02T07:57:29.409Z,8.28
2019-03-02T07:58:29.360Z,8.32
2019-03-02T07:59:29.645Z,8.28
2019-03-02T08:00:29.262Z,8.34
2019-03-02T08:01:29.212Z,8.35
2019-03-02T08:02:29.627Z,8.28
2019-03-02T08:03:29.114Z,8.24
2019-03-02T08:04:29.069Z,8.24
2019-03-02T08:05:29.021Z,8.35
2019-03-02T08:06:28.971Z,8.41
2019-03-02T08:07:28.929Z,8.41
2019-03-02T08:08:28.875Z,8.45
2019-03-02T08:09:28.834Z,8.41
2019-03-02T08:10:28.783Z,8.53
2019-03-02T08:11:28.733Z,8.45
2019-03-02T08:12:28.685Z,8.50
2019-03-02T08:13:28.641Z,8.45
2019-03-02T08:14:28.591Z,8.49
2019-03-02T08:15:28.541Z,8.50
2019-03-02T08:16:28.495Z,8.56
2019-03-02T08:17:28.445Z,8.49
2019-03-02T08:18:29.306Z,8.53
2019-03-02T08:19:28.352Z,8.60
2019-03-02T08:20:28.300Z,8.52
2019-03-02T08:21:28.252Z,8.56
2019-03-02T08:22:28.228Z,8.56
2019-03-02T08:23:28.160Z,8.63
2019-03-02T08:24:28.109Z,8.60
2019-03-02T08:25:28.063Z,8.56
2019-03-02T08:26:28.014Z,8.52
2019-03-02T08:27:30.820Z,8.52
2019-03-02T08:28:27.921Z,8.57
2019-03-02T08:29:27.869Z,8.56
2019-03-02T08:30:29.929Z,8.56
2019-03-02T08:31:27.776Z,8.54
2019-03-02T08:32:27.724Z,8.53
2019-03-02T08:33:30.693Z,8.54
2019-03-02T08:34:27.628Z,8.59
2019-03-02T08:35:27.583Z,8.52
2019-03-02T08:36:27.532Z,8.60
2019-03-02T08:37:29.913Z,8.60
2019-03-02T08:38:27.445Z,8.60
2019-03-02T08:39:27.398Z,8.53
2019-03-02T08:40:27.344Z,8.46
2019-03-02T08:41:27.302Z,8.56
2019-03-02T08:42:27.250Z,8.52
2019-03-02T08:43:27.306Z,8.63
2019-03-02T08:44:27.150Z,8.54
2019-03-02T08:45:27.634Z,8.52
2019-03-02T08:46:27.056Z,8.64
2019-03-02T08:47:27.034Z,8.52
2019-03-02T08:48:26.956Z,8.64
2019-03-02T08:49:26.912Z,8.54
2019-03-02T08:50:26.864Z,8.61
2019-03-02T08:51:26.816Z,8.63
2019-03-02T08:52:26.770Z,8.66
2019-03-02T08:53:26.718Z,8.59
2019-03-02T08:54:26.670Z,8.64
2019-03-02T08:55:29.817Z,8.63
2019-03-02T08:56:26.577Z,8.61
2019-03-02T08:57:27.284Z,8.60
2019-03-02T08:58:26.765Z,8.63
2019-03-02T08:59:26.430Z,8.61
2019-03-02T09:00:26.385Z,8.63
2019-03-02T09:01:26.334Z,8.69
2019-03-02T09:02:26.289Z,8.68
2019-03-02T09:03:26.240Z,8.69
2019-03-02T09:04:26.189Z,8.68
2019-03-02T09:05:42.873Z,8.82
2019-03-02T09:06:26.096Z,8.77
2019-03-02T09:07:26.080Z,8.74
2019-03-02T09:08:26.001Z,8.77
2019-03-02T09:09:25.955Z,8.77
2019-03-02T09:10:25.906Z,8.81
2019-03-02T09:11:25.854Z,8.77
2019-03-02T09:12:25.813Z,8.74
2019-03-02T09:13:25.760Z,8.75
2019-03-02T09:14:25.714Z,8.79
2019-03-02T09:15:28.912Z,8.77
2019-03-02T09:16:25.616Z,8.84
2019-03-02T09:17:25.572Z,8.84
2019-03-02T09:18:30.737Z,8.89
2019-03-02T09:19:25.471Z,8.75
2019-03-02T09:20:25.432Z,8.86
2019-03-02T09:21:25.425Z,8.82
2019-03-02T09:22:25.338Z,8.86
2019-03-02T09:23:25.287Z,8.89
2019-03-02T09:24:25.238Z,8.84
2019-03-02T09:25:27.884Z,8.77
2019-03-02T09:26:25.143Z,8.87
2019-03-02T09:27:25.089Z,8.78
2019-03-02T09:28:25.042Z,8.78
2019-03-02T09:29:24.995Z,8.75
2019-03-02T09:30:24.944Z,8.81
2019-03-02T09:31:26.432Z,8.82
2019-03-02T09:32:24.849Z,8.92
2019-03-02T09:33:28.456Z,8.82
2019-03-02T09:34:24.757Z,8.86
2019-03-02T09:35:24.707Z,8.87
2019-03-02T09:36:27.737Z,8.89
2019-03-02T09:37:24.612Z,8.87
2019-03-02T09:38:24.562Z,8.92
2019-03-02T09:39:24.907Z,8.78
2019-03-02T09:40:25.148Z,8.87
2019-03-02T09:41:25.451Z,8.93
2019-03-02T09:42:24.372Z,8.90
2019-03-02T09:43:24.328Z,8.93
2019-03-02T09:44:24.567Z,8.92
2019-03-02T09:45:24.229Z,8.89
2019-03-02T09:46:24.813Z,8.89
2019-03-02T09:47:24.421Z,8.90
2019-03-02T09:48:24.440Z,9.00
2019-03-02T09:49:24.041Z,8.96
2019-03-02T09:50:24.000Z,8.90
2019-03-02T09:51:23.940Z,8.90
2019-03-02T09:52:24.259Z,8.87
2019-03-02T09:53:23.948Z,8.97
2019-03-02T09:54:23.797Z,8.96
2019-03-02T09:55:23.750Z,8.97
2019-03-02T09:56:23.703Z,9.00
2019-03-02T09:57:23.663Z,8.95
2019-03-02T09:58:24.279Z,9.00
2019-03-02T09:59:23.561Z,8.97
2019-03-02T10:00:25.586Z,9.08
2019-03-02T10:01:23.464Z,9.09
2019-03-02T10:02:23.415Z,9.08
2019-03-02T10:03:26.806Z,9.15
2019-03-02T10:04:23.320Z,9.19
2019-03-02T10:05:23.274Z,9.18
2019-03-02T10:06:25.347Z,9.21
2019-03-02T10:07:25.133Z,9.21
2019-03-02T10:08:23.207Z,9.19
2019-03-02T10:09:24.959Z,9.22
2019-03-02T10:10:24.949Z,9.33
2019-03-02T10:11:24.155Z,9.31
2019-03-02T10:12:22.938Z,9.37
2019-03-02T10:13:22.893Z,9.49
2019-03-02T10:14:24.900Z,9.59
2019-03-02T10:15:22.796Z,9.64
2019-03-02T10:16:22.749Z,9.66
2019-03-02T10:17:22.701Z,9.70
2019-03-02T10:18:22.655Z,9.80
2019-03-02T10:19:25.072Z,9.88
2019-03-02T10:20:22.556Z,9.84
2019-03-02T10:21:22.512Z,9.99
2019-03-02T10:22:23.333Z,10.05
2019-03-02T10:23:22.418Z,10.15
2019-03-02T10:24:22.398Z,10.15
2019-03-02T10:25:25.883Z,10.24
2019-03-02T10:26:22.276Z,10.36
2019-03-02T10:27:22.492Z,10.36
2019-03-02T10:28:22.182Z,10.53
2019-03-02T10:29:22.140Z,10.51
2019-03-02T10:30:25.759Z,10.57
2019-03-02T10:31:22.039Z,10.57
2019-03-02T10:32:21.992Z,10.71
2019-03-02T10:33:21.944Z,10.76
2019-03-02T10:34:21.908Z,10.76
2019-03-02T10:35:21.850Z,10.82
2019-03-02T10:36:21.806Z,10.87
2019-03-02T10:37:21.758Z,10.95
2019-03-02T10:38:24.210Z,11.07
2019-03-02T10:39:21.668Z,11.02
2019-03-02T10:40:23.161Z,11.18
2019-03-02T10:41:21.650Z,11.12
2019-03-02T10:42:21.521Z,11.25
2019-03-02T10:43:21.479Z,11.27
2019-03-02T10:44:22.229Z,11.37
2019-03-02T10:45:21.387Z,11.43
2019-03-02T10:46:21.340Z,11.41
2019-03-02T10:47:21.322Z,11.48
2019-03-02T10:48:21.325Z,11.37
2019-03-02T10:49:21.217Z,11.49
2019-03-02T10:50:23.309Z,11.49
2019-03-02T10:51:21.101Z,11.56
2019-03-02T10:52:21.067Z,11.67
2019-03-02T10:53:24.241Z,11.62
2019-03-02T10:54:20.961Z,11.70
2019-03-02T10:55:20.930Z,11.63
2019-03-02T10:56:24.651Z,11.65
2019-03-02T10:57:20.826Z,11.73
2019-03-02T10:58:20.778Z,11.70
2019-03-02T10:59:20.736Z,11.71
2019-03-02T11:00:20.757Z,11.62
2019-03-02T11:01:20.701Z,11.76
2019-03-02T11:02:21.049Z,11.74
2019-03-02T11:03:20.552Z,11.86
2019-03-02T11:04:20.498Z,11.93
2019-03-02T11:05:21.070Z,11.97
2019-03-02T11:06:20.407Z,11.96
2019-03-02T11:07:20.362Z,12.08
2019-03-02T11:08:21.794Z,12.08
2019-03-02T11:09:22.556Z,12.17
2019-03-02T11:10:20.223Z,12.17
2019-03-02T11:11:20.173Z,12.15
2019-03-02T11:12:20.130Z,12.12
2019-03-02T11:13:20.699Z,12.11
2019-03-02T11:14:20.038Z,12.29
2019-03-02T11:15:20.000Z,12.18
2019-03-02T11:16:19.946Z,12.30
2019-03-02T11:17:23.143Z,12.18
2019-03-02T11:18:19.851Z,12.20
2019-03-02T11:19:19.803Z,12.21
2019-03-02T11:20:20.736Z,12.08
2019-03-02T11:21:19.713Z,12.00
2019-03-02T11:22:19.884Z,12.03
2019-03-02T11:23:22.158Z,11.89
2019-03-02T11:24:19.574Z,11.96
2019-03-02T11:25:19.583Z,11.93
2019-03-02T11:26:19.486Z,11.97
2019-03-02T11:27:19.437Z,12.00
2019-03-02T11:28:19.660Z,12.05
2019-03-02T11:29:21.182Z,12.15
2019-03-02T11:30:19.302Z,12.18
2019-03-02T11:31:19.255Z,12.12
2019-03-02T11:32:20.318Z,12.26
2019-03-02T11:33:19.158Z,12.28
2019-03-02T11:34:19.115Z,12.39
2019-03-02T11:35:19.535Z,12.40
2019-03-02T11:36:19.022Z,12.43
2019-03-02T11:37:22.002Z,12.55
2019-03-02T11:38:18.930Z,12.61
2019-03-02T11:39:18.886Z,12.70
2019-03-02T11:40:18.837Z,12.80
2019-03-02T11:41:20.939Z,12.87
2019-03-02T11:42:18.745Z,13.03
2019-03-02T11:43:18.699Z,12.99
2019-03-02T11:44:18.652Z,13.16
2019-03-02T11:45:18.608Z,13.13
2019-03-02T11:46:18.565Z,13.19
2019-03-02T11:47:18.536Z,13.16
2019-03-02T11:48:18.472Z,13.16
2019-03-02T11:49:18.425Z,13.27
2019-03-02T11:50:18.378Z,13.23
2019-03-02T11:51:18.339Z,13.27
2019-03-02T11:52:18.288Z,13.27
2019-03-02T11:53:18.245Z,13.27
2019-03-02T11:54:18.200Z,13.31
2019-03-02T11:55:18.151Z,13.28
2019-03-02T11:56:26.618Z,13.30
2019-03-02T11:57:21.126Z,13.37
2019-03-02T11:58:18.016Z,13.37
2019-03-02T11:59:17.982Z,13.37
2019-03-02T12:00:21.258Z,13.47
2019-03-02T12:01:17.881Z,13.46
2019-03-02T12:02:19.911Z,13.39
2019-03-02T12:03:17.787Z,13.50
2019-03-02T12:04:17.743Z,13.37
2019-03-02T12:05:17.702Z,13.57
2019-03-02T12:06:17.656Z,13.52
2019-03-02T12:07:17.609Z,13.58
2019-03-02T12:08:18.034Z,13.54
2019-03-02T12:09:17.512Z,13.49
2019-03-02T12:10:17.469Z,13.37
2019-03-02T12:11:17.429Z,13.45
2019-03-02T12:12:18.289Z,13.46
2019-03-02T12:13:17.332Z,13.42
2019-03-02T12:14:17.286Z,13.57
2019-03-02T12:15:17.239Z,13.67
2019-03-02T12:16:17.198Z,13.68
2019-03-02T12:17:17.158Z,13.78
2019-03-02T12:18:19.518Z,13.71
2019-03-02T12:19:17.059Z,13.79
2019-03-02T12:20:17.017Z,13.83
2019-03-02T12:21:17.950Z,13.86
2019-03-02T12:22:16.926Z,13.89
2019-03-02T12:23:16.878Z,13.93
2019-03-02T12:24:19.128Z,13.93
2019-03-02T12:25:16.787Z,13.80
2019-03-02T12:26:16.742Z,13.91
2019-03-02T12:27:18.853Z,14.03
2019-03-02T12:28:16.651Z,14.11
2019-03-02T12:29:16.609Z,14.30
2019-03-02T12:30:16.561Z,14.48
2019-03-02T12:31:16.519Z,14.62
2019-03-02T12:32:16.481Z,14.66
2019-03-02T12:33:17.008Z,14.86
2019-03-02T12:34:16.378Z,15.05
2019-03-02T12:35:16.334Z,15.10
2019-03-02T12:36:17.265Z,15.32
2019-03-02T12:37:16.246Z,15.48
2019-03-02T12:38:16.204Z,15.41
2019-03-02T12:39:16.168Z,15.48
2019-03-02T12:40:16.115Z,15.47
2019-03-02T12:41:16.714Z,15.54
2019-03-02T12:42:16.020Z,15.76
2019-03-02T12:43:15.978Z,15.94
2019-03-02T12:44:17.368Z,16.08
2019-03-02T12:45:15.886Z,16.29
2019-03-02T12:46:16.946Z,16.43
2019-03-02T12:47:15.800Z,16.61
2019-03-02T12:48:15.750Z,16.64
2019-03-02T12:49:15.712Z,16.47
2019-03-02T12:50:18.992Z,16.13
2019-03-02T12:51:15.623Z,15.83
2019-03-02T12:52:15.942Z,15.80
2019-03-02T12:53:16.217Z,15.94
2019-03-02T12:54:15.483Z,16.12
2019-03-02T12:55:16.353Z,15.92
2019-03-02T12:56:15.413Z,15.88
2019-03-02T12:57:15.352Z,15.99
2019-03-02T12:58:15.308Z,16.16
2019-03-02T12:59:15.263Z,16.12
2019-03-02T13:00:15.223Z,16.36
2019-03-02T13:01:15.174Z,16.13
2019-03-02T13:02:15.346Z,16.10
2019-03-02T13:03:15.090Z,16.12
2019-03-02T13:04:15.041Z,16.05
2019-03-02T13:05:17.762Z,16.09
2019-03-02T13:06:14.956Z,15.85
2019-03-02T13:07:15.561Z,15.70
2019-03-02T13:08:15.412Z,15.67
2019-03-02T13:09:14.822Z,15.69
2019-03-02T13:10:15.150Z,15.62
2019-03-02T13:11:14.730Z,15.52
2019-03-02T13:12:14.694Z,15.30
2019-03-02T13:13:16.891Z,15.26